Mackenzie, Canada
Current Conditions -  °F | °C
As of 8:00 AM on Thursday 30 Oct 2014 (Local Time) from CYZY Reporting Station
Overcast Overcast  
Wind Chill:   Ceiling: 6000
Heat Index:   Visibility: 9mi
Dew Point:   Wind: 5mph
Humidity: 100%   Direction: 140°SE
Pressure: 29.88"   Gusts: NA
Location:  55.33°N, 123.09°W
Report Text: CYZY 301500Z AUTO 14004KT 9SM OVC060 02/02 A2988 RMK SLP147
Loading
Personal Weather Stations






























Interactive Weather Map
Tropical Storm Tracking
New forecast layout! Learn more

10-Day Weather Forecast

Advertisements
Track Severe Weather on mobile